Time;durP1;ratioP1;P1;durP2;ratioP2;P2;SDS_P1;SDS_P2;PMS_P1;PMS_P2;Temp;Humidity;BMP_temperature;BMP_pressure;BME280_temperature;BME280_humidity;BME280_pressure;Samples;Min_cycle;Max_cycle;Signal;HPM_P1;HPM_P2
2022/01/09 00:00:18;;;;;;;17.55;12.90;;;5.00;99.90;;;;;;5031739;28;20045;-63
2022/01/09 00:02:44;;;;;;;14.95;11.27;;;5.00;99.90;;;;;;5031199;28;20046;-63
2022/01/09 00:05:11;;;;;;;16.85;12.15;;;5.10;99.90;;;;;;5031718;28;20105;-63
2022/01/09 00:07:37;;;;;;;14.73;11.50;;;5.10;99.90;;;;;;5031505;28;20064;-63
2022/01/09 00:10:05;;;;;;;15.20;11.05;;;5.00;99.90;;;;;;5050695;28;20044;-63
2022/01/09 00:12:30;;;;;;;15.80;11.55;;;5.00;99.90;;;;;;5034546;28;20048;-63
2022/01/09 00:14:56;;;;;;;16.95;11.88;;;;;;;;;;5034762;28;20041;-63
2022/01/09 00:17:22;;;;;;;14.93;11.38;;;5.00;99.90;;;;;;5052225;28;20394;-62
2022/01/09 00:19:48;;;;;;;13.18;9.65;;;5.00;99.90;;;;;;5034702;28;20124;-63
2022/01/09 00:22:16;;;;;;;15.52;11.02;;;5.30;99.90;;;;;;5021271;28;20040;-63
2022/01/09 00:24:42;;;;;;;16.15;11.27;;;;;;;;;;5038221;28;20166;-63
2022/01/09 00:27:07;;;;;;;16.40;11.75;;;5.10;99.90;;;;;;5021379;28;20123;-63
2022/01/09 00:29:33;;;;;;;16.02;11.15;;;;;;;;;;5038292;28;20037;-63
2022/01/09 00:31:59;;;;;;;13.95;10.57;;;;;;;;;;5037646;28;20503;-63
2022/01/09 00:34:25;;;;;;;14.98;10.85;;;4.90;99.90;;;;;;5038082;28;20033;-63
2022/01/09 00:36:51;;;;;;;16.10;10.77;;;;;;;;;;5037579;28;20048;-63
2022/01/09 00:39:16;;;;;;;16.30;10.82;;;5.00;99.90;;;;;;5037706;28;20033;-63
2022/01/09 00:41:42;;;;;;;16.13;11.10;;;;;;;;;;5055589;28;20449;-63
2022/01/09 00:44:08;;;;;;;14.55;10.15;;;5.00;99.90;;;;;;5021423;28;20037;-63
2022/01/09 00:46:33;;;;;;;14.48;10.75;;;5.00;99.90;;;;;;5037636;28;20487;-63
2022/01/09 00:49:04;;;;;;;13.93;9.52;;;5.00;99.90;;;;;;5037432;28;20190;-63
2022/01/09 00:51:30;;;;;;;17.08;10.95;;;5.00;99.90;;;;;;5055369;28;20029;-63
2022/01/09 00:53:56;;;;;;;14.88;11.40;;;5.10;99.90;;;;;;5037772;28;20041;-63
2022/01/09 00:56:22;;;;;;;15.82;11.30;;;5.00;99.90;;;;;;5037487;28;20045;-63
2022/01/09 00:58:47;;;;;;;16.95;10.75;;;4.90;99.90;;;;;;5055184;28;20036;-63
2022/01/09 01:01:13;;;;;;;14.23;10.90;;;4.90;99.90;;;;;;5021219;28;20037;-63
2022/01/09 01:03:38;;;;;;;16.27;11.55;;;4.90;99.90;;;;;;5057505;28;20391;-63
2022/01/09 01:06:04;;;;;;;17.02;11.23;;;4.80;99.90;;;;;;5057413;28;20032;-63
2022/01/09 01:08:30;;;;;;;14.52;10.60;;;5.00;99.90;;;;;;5074691;28;20056;-63
2022/01/09 01:10:56;;;;;;;16.42;10.80;;;4.80;99.90;;;;;;5057079;28;20089;-63
2022/01/09 01:13:21;;;;;;;14.70;10.52;;;4.90;99.90;;;;;;5074786;28;20041;-63
2022/01/09 01:15:47;;;;;;;14.60;10.27;;;;;;;;;;5074616;28;20055;-63
2022/01/09 01:18:13;;;;;;;15.00;11.20;;;5.00;99.90;;;;;;5056737;28;20036;-63
2022/01/09 01:20:40;;;;;;;17.15;11.30;;;4.80;99.90;;;;;;5040709;28;20056;-63
2022/01/09 01:23:05;;;;;;;12.57;9.30;;;4.90;99.90;;;;;;5056917;28;20513;-63
2022/01/09 01:25:32;;;;;;;14.20;10.35;;;4.90;99.90;;;;;;5040346;28;20044;-63
2022/01/09 01:27:58;;;;;;;13.52;9.82;;;4.90;99.90;;;;;;5074575;28;20531;-63
2022/01/09 01:30:23;;;;;;;16.10;11.10;;;4.90;99.90;;;;;;5040238;28;20032;-63
2022/01/09 01:32:49;;;;;;;13.43;9.07;;;4.90;99.90;;;;;;5074377;28;20049;-63
2022/01/09 01:35:15;;;;;;;13.20;8.85;;;;;;;;;;5057194;28;20409;-63
2022/01/09 01:37:42;;;;;;;17.15;9.07;;;5.10;99.90;;;;;;5056406;28;20527;-63
2022/01/09 01:40:18;;;;;;;12.65;8.73;;;5.00;99.90;;;;;;5074587;28;20041;-63
2022/01/09 01:42:45;;;;;;;12.55;8.93;;;5.10;99.90;;;;;;5056587;28;20490;-63
2022/01/09 01:45:11;;;;;;;12.80;9.18;;;5.20;99.90;;;;;;5074235;28;20490;-63
2022/01/09 01:47:38;;;;;;;12.20;8.20;;;5.10;99.90;;;;;;5039646;28;20406;-63
2022/01/09 01:50:05;;;;;;;15.43;8.55;;;5.20;99.90;;;;;;5039966;28;20401;-63
2022/01/09 01:52:36;;;;;;;11.07;7.55;;;5.20;99.90;;;;;;5021675;28;20045;-63
2022/01/09 01:55:05;;;;;;;11.75;7.95;;;5.40;99.90;;;;;;5000501;28;20037;-63
2022/01/09 01:57:31;;;;;;;15.82;9.10;;;5.30;99.90;;;;;;5016522;28;20045;-63
2022/01/09 01:59:56;;;;;;;16.67;8.73;;;5.20;99.90;;;;;;5034320;28;20033;-63
2022/01/09 02:02:23;;;;;;;12.32;8.25;;;5.60;99.90;;;;;;5013350;28;20048;-64
2022/01/09 02:04:49;;;;;;;15.27;8.35;;;5.40;99.90;;;;;;5016232;28;20120;-63
2022/01/09 02:07:15;;;;;;;13.95;7.88;;;5.60;99.90;;;;;;5030164;28;20065;-63
2022/01/09 02:09:40;;;;;;;14.80;6.63;;;5.50;99.90;;;;;;5015932;28;20050;-63
2022/01/09 02:12:06;;;;;;;16.10;6.50;;;5.60;99.90;;;;;;5032947;28;20052;-63
2022/01/09 02:14:36;;;;;;;17.60;6.53;;;5.60;99.90;;;;;;5016236;28;20048;-64
2022/01/09 02:17:04;;;;;;;24.23;6.97;;;5.50;99.90;;;;;;5033913;28;20394;-64
2022/01/09 02:19:30;;;;;;;19.52;5.70;;;5.60;99.90;;;;;;5016328;28;20175;-63
2022/01/09 02:21:56;;;;;;;16.92;5.20;;;5.70;99.90;;;;;;5016324;28;20532;-64
2022/01/09 02:24:25;;;;;;;13.65;4.75;;;5.60;99.90;;;;;;5016167;28;20530;-64
2022/01/09 02:26:51;;;;;;;16.60;5.35;;;;;;;;;;5015744;28;20486;-64
2022/01/09 02:29:17;;;;;;;22.05;5.38;;;5.70;99.90;;;;;;5032627;28;20077;-64
2022/01/09 02:31:43;;;;;;;15.40;5.40;;;5.70;99.90;;;;;;5033592;28;20037;-64
2022/01/09 02:34:09;;;;;;;28.15;5.22;;;5.80;99.90;;;;;;5033799;28;20065;-64
2022/01/09 02:36:35;;;;;;;22.05;4.50;;;5.90;99.90;;;;;;5033542;28;20034;-64
2022/01/09 02:39:00;;;;;;;16.90;5.03;;;5.80;99.90;;;;;;5033288;28;20135;-64
2022/01/09 02:41:26;;;;;;;22.20;4.13;;;5.80;99.90;;;;;;5015823;28;20064;-64
2022/01/09 02:43:52;;;;;;;23.67;5.28;;;6.00;99.90;;;;;;5015120;28;20042;-64
2022/01/09 02:47:05;;;;;;;28.42;5.03;;;5.90;99.90;;;;;;5016146;28;20041;-64
2022/01/09 02:49:07;;;;;;;27.75;4.97;;;6.00;99.90;;;;;;5021833;28;20056;-64
2022/01/09 02:51:39;;;;;;;33.78;5.63;;;6.10;99.90;;;;;;5024993;28;20033;-64
2022/01/09 02:55:06;;;;;;;27.58;6.13;;;6.00;99.90;;;;;;5035659;28;20056;-64
2022/01/09 02:56:53;;;;;;;28.25;5.57;;;6.30;99.90;;;;;;5052969;28;20134;-64
2022/01/09 02:59:19;;;;;;;36.15;5.10;;;6.10;99.90;;;;;;5019356;28;20075;-64
2022/01/09 03:01:45;;;;;;;34.78;5.57;;;;;;;;;;5053663;28;20041;-64
2022/01/09 03:04:11;;;;;;;40.72;6.75;;;;;;;;;;5035643;28;20076;-64
2022/01/09 03:06:36;;;;;;;38.80;7.13;;;6.20;99.90;;;;;;5035132;28;20043;-64
2022/01/09 03:09:05;;;;;;;30.27;5.32;;;6.20;99.90;;;;;;5052850;28;20041;-64
2022/01/09 03:11:31;;;;;;;42.20;6.47;;;6.00;99.90;;;;;;5035324;28;20041;-64
2022/01/09 03:13:57;;;;;;;42.90;7.90;;;6.20;99.90;;;;;;5035298;28;20033;-64
2022/01/09 03:16:23;;;;;;;34.13;6.20;;;6.30;99.90;;;;;;5035278;28;20087;-64
2022/01/09 03:18:48;;;;;;;40.72;6.22;;;6.20;99.90;;;;;;5035230;28;20041;-64
2022/01/09 03:21:14;;;;;;;45.58;9.93;;;;;;;;;;5035083;28;20037;-64
2022/01/09 03:23:40;;;;;;;43.03;6.15;;;6.30;99.90;;;;;;5053120;28;20453;-64
2022/01/09 03:26:08;;;;;;;43.65;5.88;;;6.30;99.90;;;;;;5035253;28;20040;-64
2022/01/09 03:28:35;;;;;;;42.55;7.57;;;6.20;99.90;;;;;;5051688;28;20052;-64
2022/01/09 03:31:00;;;;;;;41.20;6.07;;;6.40;99.90;;;;;;5034846;28;20053;-65
2022/01/09 03:33:26;;;;;;;40.25;5.55;;;6.40;99.90;;;;;;5034793;28;20052;-64
2022/01/09 03:35:52;;;;;;;45.97;6.07;;;6.40;99.90;;;;;;5035036;28;20037;-64
2022/01/09 03:38:17;;;;;;;34.22;5.50;;;;;;;;;;5018801;28;20052;-64
2022/01/09 03:40:43;;;;;;;47.00;6.65;;;6.40;99.90;;;;;;5052650;28;20041;-64
2022/01/09 03:43:09;;;;;;;44.78;6.72;;;6.50;99.90;;;;;;5034984;28;20119;-64
2022/01/09 03:45:34;;;;;;;27.38;7.15;;;6.40;99.90;;;;;;5034880;28;20037;-64
2022/01/09 03:48:00;;;;;;;31.02;7.00;;;6.40;99.90;;;;;;5052563;28;20051;-64
2022/01/09 03:50:26;;;;;;;45.78;6.32;;;6.40;99.90;;;;;;5035072;28;20052;-64
2022/01/09 03:52:52;;;;;;;37.58;7.30;;;6.30;99.90;;;;;;5018574;28;20546;-64
2022/01/09 03:55:19;;;;;;;31.17;5.63;;;6.40;99.90;;;;;;5019706;28;20482;-64
2022/01/09 03:57:46;;;;;;;36.83;4.85;;;6.50;99.90;;;;;;5038484;28;20032;-64
2022/01/09 04:00:15;;;;;;;24.27;5.28;;;6.40;99.90;;;;;;5038441;28;20040;-64
2022/01/09 04:02:41;;;;;;;36.08;6.10;;;6.30;99.90;;;;;;5038777;28;20070;-64
2022/01/09 04:05:08;;;;;;;30.80;5.90;;;6.40;99.90;;;;;;5021988;28;20048;-64
2022/01/09 04:07:34;;;;;;;29.50;6.07;;;6.30;99.90;;;;;;5038534;28;20398;-63
2022/01/09 04:09:59;;;;;;;27.92;4.88;;;6.40;99.90;;;;;;5038136;28;20056;-64
2022/01/09 04:12:34;;;;;;;32.50;6.93;;;6.40;99.90;;;;;;5035868;28;20048;-64
2022/01/09 04:15:04;;;;;;;35.20;7.80;;;6.30;99.90;;;;;;5038373;28;20110;-64
2022/01/09 04:17:52;;;;;;;27.98;4.00;;;;;;;;;;5056058;28;20044;-64
2022/01/09 04:20:16;;;;;;;28.67;5.30;;;6.40;99.90;;;;;;5037768;28;20063;-64
2022/01/09 04:22:42;;;;;;;29.83;4.50;;;6.40;99.90;;;;;;5038181;28;20479;-64
2022/01/09 04:25:08;;;;;;;22.83;4.55;;;6.40;99.90;;;;;;5038231;28;20097;-64
2022/01/09 04:27:34;;;;;;;36.58;5.28;;;6.40;99.90;;;;;;5037949;28;20037;-64
2022/01/09 04:30:00;;;;;;;24.50;4.40;;;6.40;99.90;;;;;;5037996;28;20538;-64
2022/01/09 04:32:26;;;;;;;29.75;5.22;;;6.40;99.90;;;;;;5037867;28;20577;-64
2022/01/09 04:34:51;;;;;;;32.17;5.20;;;6.30;99.90;;;;;;5055615;28;20041;-64
2022/01/09 04:37:18;;;;;;;34.40;4.88;;;;;;;;;;5021301;28;20039;-64
2022/01/09 04:39:47;;;;;;;26.63;4.38;;;6.40;99.90;;;;;;5037598;28;20037;-64
2022/01/09 04:42:12;;;;;;;24.95;4.43;;;6.30;99.90;;;;;;5038075;28;20076;-64
2022/01/09 04:44:38;;;;;;;22.80;5.55;;;;;;;;;;5055734;28;20065;-64
2022/01/09 04:47:09;;;;;;;24.38;4.35;;;6.30;99.90;;;;;;5037786;28;20114;-64
2022/01/09 04:49:36;;;;;;;22.70;4.25;;;6.20;99.90;;;;;;5053279;28;20042;-64
2022/01/09 04:52:04;;;;;;;23.35;4.65;;;6.00;99.90;;;;;;5037361;28;20060;-64
2022/01/09 04:54:30;;;;;;;26.80;3.90;;;;;;;;;;5037695;28;20145;-64
2022/01/09 04:56:56;;;;;;;28.92;4.60;;;6.30;99.90;;;;;;5055221;28;20037;-64
2022/01/09 04:59:21;;;;;;;25.77;4.30;;;6.20;99.90;;;;;;5055115;28;20423;-64
2022/01/09 05:01:47;;;;;;;26.70;3.85;;;6.20;99.90;;;;;;5037493;28;20127;-64
2022/01/09 05:04:12;;;;;;;22.55;4.57;;;6.20;99.90;;;;;;5020790;28;20036;-64
2022/01/09 05:06:38;;;;;;;21.17;3.65;;;;;;;;;;5054453;28;20033;-64
2022/01/09 05:09:04;;;;;;;19.45;3.33;;;6.30;99.90;;;;;;5035936;28;20083;-65
2022/01/09 05:11:30;;;;;;;15.25;3.13;;;;;;;;;;5016428;28;20045;-63
2022/01/09 05:13:55;;;;;;;11.38;4.07;;;6.20;99.90;;;;;;5010499;28;20061;-64
2022/01/09 05:16:21;;;;;;;22.17;4.35;;;6.30;99.90;;;;;;5027270;28;20121;-64
2022/01/09 05:18:52;;;;;;;21.33;3.40;;;6.30;99.90;;;;;;5024162;28;20045;-65
2022/01/09 05:21:18;;;;;;;15.20;3.03;;;6.20;99.90;;;;;;5034231;28;20044;-64
2022/01/09 05:23:44;;;;;;;19.17;4.90;;;;;;;;;;5034970;28;20402;-64
2022/01/09 05:26:10;;;;;;;26.20;3.65;;;6.20;99.90;;;;;;5053876;28;20083;-64
2022/01/09 05:28:36;;;;;;;22.80;4.40;;;6.20;99.90;;;;;;5033213;28;20036;-64
2022/01/09 05:31:01;;;;;;;30.77;3.92;;;6.20;99.90;;;;;;5051853;28;20478;-64
2022/01/09 05:33:27;;;;;;;29.88;4.00;;;6.10;99.90;;;;;;5054122;28;20040;-64
2022/01/09 05:35:53;;;;;;;24.50;4.30;;;6.10;99.90;;;;;;5053992;28;20132;-64
2022/01/09 05:38:18;;;;;;;23.10;4.38;;;6.10;99.90;;;;;;5040494;28;20044;-64
2022/01/09 05:40:47;;;;;;;19.63;5.05;;;6.10;99.90;;;;;;5053734;28;20482;-65
2022/01/09 05:43:14;;;;;;;22.15;3.75;;;6.00;99.90;;;;;;5045702;28;20044;-64
2022/01/09 05:45:40;;;;;;;25.20;4.88;;;;;;;;;;5045547;28;20107;-64
2022/01/09 05:48:06;;;;;;;21.55;3.45;;;6.20;99.90;;;;;;5034549;28;20491;-64
2022/01/09 05:50:32;;;;;;;19.00;4.13;;;6.10;99.90;;;;;;5033289;28;20037;-64
2022/01/09 05:52:58;;;;;;;15.88;3.42;;;;;;;;;;5050422;28;20064;-64
2022/01/09 05:55:24;;;;;;;21.48;3.47;;;6.10;99.90;;;;;;5047990;28;20077;-64
2022/01/09 05:57:50;;;;;;;19.90;3.28;;;;;;;;;;5051699;28;20048;-64
2022/01/09 06:00:15;;;;;;;19.23;4.38;;;6.10;99.90;;;;;;5036586;28;20452;-64
2022/01/09 06:02:41;;;;;;;19.77;3.58;;;6.20;99.90;;;;;;5030747;28;20037;-64
2022/01/09 06:05:07;;;;;;;24.60;3.78;;;6.10;99.90;;;;;;5016133;28;20042;-64
2022/01/09 06:07:33;;;;;;;21.88;3.53;;;6.00;99.90;;;;;;5018602;28;20069;-64
2022/01/09 06:09:59;;;;;;;14.55;3.67;;;6.20;99.90;;;;;;5053014;28;20052;-64
2022/01/09 06:12:25;;;;;;;22.08;3.30;;;6.00;99.90;;;;;;5035716;28;20124;-64
2022/01/09 06:14:51;;;;;;;21.77;3.70;;;5.90;99.90;;;;;;5030367;28;20042;-64
2022/01/09 06:17:40;;;;;;;21.08;3.97;;;;;;;;;;4997630;28;20059;-64
2022/01/09 06:20:07;;;;;;;22.75;4.70;;;6.30;99.90;;;;;;5034576;28;20049;-64
2022/01/09 06:22:32;;;;;;;21.23;4.78;;;6.10;99.90;;;;;;5035379;28;20398;-64
2022/01/09 06:24:58;;;;;;;19.25;3.53;;;;;;;;;;5018006;28;20124;-64
2022/01/09 06:27:24;;;;;;;24.58;3.95;;;6.30;99.90;;;;;;5029546;28;20172;-65
2022/01/09 06:29:50;;;;;;;20.60;3.33;;;6.20;99.90;;;;;;5023559;28;20407;-62
2022/01/09 06:32:16;;;;;;;16.38;2.75;;;;;;;;;;5022678;28;20120;-63
2022/01/09 06:34:42;;;;;;;22.88;3.63;;;6.20;99.90;;;;;;5002609;28;20095;-63
2022/01/09 06:37:10;;;;;;;18.13;3.30;;;6.10;99.90;;;;;;5007170;28;20048;-63
2022/01/09 06:39:36;;;;;;;15.57;3.13;;;;;;;;;;5030916;28;20041;-64
2022/01/09 06:42:03;;;;;;;15.90;3.10;;;6.10;99.90;;;;;;5000596;28;20041;-63
2022/01/09 06:44:28;;;;;;;14.32;3.45;;;6.10;99.90;;;;;;5030467;28;20082;-64
2022/01/09 06:46:54;;;;;;;14.63;3.25;;;6.00;99.90;;;;;;5031047;28;20069;-64
2022/01/09 06:49:19;;;;;;;16.38;2.75;;;6.00;99.90;;;;;;4996884;28;20098;-64
2022/01/09 06:51:45;;;;;;;15.55;3.13;;;5.90;99.90;;;;;;5029936;28;20065;-64
2022/01/09 06:54:13;;;;;;;10.82;2.33;;;;;;;;;;4988696;28;20487;-63
2022/01/09 06:56:39;;;;;;;10.05;2.13;;;;;;;;;;5013809;28;20456;-64
2022/01/09 06:59:05;;;;;;;17.02;2.63;;;;;;;;;;5021548;28;20128;-64
2022/01/09 07:01:30;;;;;;;12.07;2.42;;;5.80;99.90;;;;;;5036346;28;20124;-63
2022/01/09 07:03:56;;;;;;;10.32;2.38;;;;;;;;;;5039755;28;20033;-63
2022/01/09 07:06:22;;;;;;;9.55;2.30;;;;;;;;;;5028049;28;20051;-63
2022/01/09 07:08:48;;;;;;;9.98;2.75;;;;;;;;;;5031056;28;20084;-63
2022/01/09 07:11:15;;;;;;;9.35;3.05;;;;;;;;;;5049299;28;20095;-63
2022/01/09 07:13:41;;;;;;;11.50;2.70;;;;;;;;;;5013959;28;20414;-64
2022/01/09 07:16:07;;;;;;;8.73;2.33;;;;;;;;;;5027937;28;20037;-64
2022/01/09 07:18:33;;;;;;;10.18;2.70;;;;;;;;;;5009837;28;20037;-64
2022/01/09 07:20:59;;;;;;;11.57;2.72;;;;;;;;;;5027874;28;20045;-64
2022/01/09 07:23:24;;;;;;;10.18;2.63;;;;;;;;;;5009882;28;20124;-63
2022/01/09 07:25:51;;;;;;;13.07;2.42;;;;;;;;;;5048497;28;20194;-63
2022/01/09 07:28:17;;;;;;;10.77;3.15;;;;;;;;;;5055107;28;20056;-63
2022/01/09 07:30:43;;;;;;;11.48;2.35;;;;;;;;;;5041003;28;20131;-63
2022/01/09 07:33:09;;;;;;;12.55;3.08;;;;;;;;;;5059661;28;20504;-63
2022/01/09 07:35:35;;;;;;;7.38;2.40;;;;;;;;;;5046038;28;20056;-64
2022/01/09 07:38:01;;;;;;;13.10;2.55;;;;;;;;;;5039373;28;20123;-64
2022/01/09 07:40:28;;;;;;;12.45;2.38;;;5.60;99.90;;;;;;5040803;28;20037;-65
2022/01/09 07:42:54;;;;;;;8.75;2.72;;;5.70;99.90;;;;;;5027946;28;20492;-63
2022/01/09 07:45:24;;;;;;;14.70;3.33;;;5.60;99.90;;;;;;5060811;28;20051;-63
2022/01/09 07:47:50;;;;;;;11.77;3.25;;;;;;;;;;5072287;28;20090;-63
2022/01/09 07:50:16;;;;;;;9.05;2.08;;;;;;;;;;5033910;28;20532;-63
2022/01/09 07:52:42;;;;;;;8.63;3.22;;;;;;;;;;5046309;28;20056;-65
2022/01/09 07:55:08;;;;;;;13.48;2.20;;;;;;;;;;5035662;28;20557;-66
2022/01/09 07:57:34;;;;;;;9.55;2.15;;;;;;;;;;5053883;28;20048;-65
2022/01/09 08:00:03;;;;;;;7.90;2.67;;;5.70;99.90;;;;;;5033378;28;20048;-65
2022/01/09 08:02:29;;;;;;;9.63;2.13;;;;;;;;;;5061112;28;20448;-65
2022/01/09 08:04:55;;;;;;;8.48;2.08;;;;;;;;;;5053242;28;20045;-66
2022/01/09 08:07:20;;;;;;;20.08;4.20;;;5.70;99.90;;;;;;5053293;28;20402;-65
2022/01/09 08:09:47;;;;;;;14.05;3.47;;;;;;;;;;5036248;28;20065;-66
2022/01/09 08:12:14;;;;;;;8.52;2.10;;;;;;;;;;5037582;28;20049;-66
2022/01/09 08:14:41;;;;;;;16.48;2.33;;;5.60;99.90;;;;;;5053539;28;20060;-66
2022/01/09 08:17:07;;;;;;;11.10;2.40;;;5.80;99.90;;;;;;5041742;28;20099;-63
2022/01/09 08:19:35;;;;;;;8.70;1.67;;;5.50;99.90;;;;;;5033425;28;20130;-63
2022/01/09 08:22:02;;;;;;;11.20;2.45;;;5.60;99.90;;;;;;5033412;28;20054;-63
2022/01/09 08:24:28;;;;;;;10.43;2.70;;;5.70;99.90;;;;;;5055513;28;20032;-63
2022/01/09 08:26:53;;;;;;;13.10;2.83;;;5.60;99.90;;;;;;5067819;28;20406;-64
2022/01/09 08:29:19;;;;;;;14.85;2.28;;;;;;;;;;5045256;28;20044;-66
2022/01/09 08:31:45;;;;;;;7.63;2.45;;;;;;;;;;5043480;28;20056;-64
2022/01/09 08:34:11;;;;;;;5.22;2.28;;;5.60;99.90;;;;;;5063670;28;20063;-63
2022/01/09 08:36:37;;;;;;;12.75;2.50;;;;;;;;;;5046820;28;20085;-65
2022/01/09 08:39:04;;;;;;;11.95;2.70;;;;;;;;;;5045283;28;20037;-63
2022/01/09 08:41:30;;;;;;;13.95;2.30;;;;;;;;;;5064362;28;20075;-65
2022/01/09 08:43:56;;;;;;;16.60;3.20;;;;;;;;;;5066193;28;20068;-64
2022/01/09 08:46:22;;;;;;;9.52;2.58;;;;;;;;;;5044431;28;20040;-65
2022/01/09 08:48:49;;;;;;;15.95;2.95;;;5.70;99.90;;;;;;5046345;28;20048;-63
2022/01/09 08:51:14;;;;;;;15.27;2.38;;;5.70;99.90;;;;;;5069758;28;20047;-63
2022/01/09 08:53:41;;;;;;;11.70;2.67;;;5.70;99.90;;;;;;5069115;28;20394;-63
2022/01/09 08:56:09;;;;;;;11.80;3.25;;;;;;;;;;5063636;28;20111;-63
2022/01/09 08:58:35;;;;;;;13.48;2.67;;;;;;;;;;5068911;28;20045;-65
2022/01/09 09:01:01;;;;;;;8.85;3.00;;;;;;;;;;5065679;28;20036;-63
2022/01/09 09:03:27;;;;;;;13.88;2.13;;;;;;;;;;5068013;28;20042;-63
2022/01/09 09:05:53;;;;;;;14.20;2.65;;;;;;;;;;5033512;28;20045;-63
2022/01/09 09:08:19;;;;;;;10.23;2.08;;;;;;;;;;5030141;28;20064;-65
2022/01/09 09:10:46;;;;;;;8.18;1.90;;;5.90;99.90;;;;;;5013815;28;20061;-63
2022/01/09 09:13:12;;;;;;;11.02;2.15;;;;;;;;;;5043786;28;20099;-64
2022/01/09 09:15:38;;;;;;;14.23;2.80;;;;;;;;;;5051341;28;20044;-64
2022/01/09 09:18:04;;;;;;;9.88;2.55;;;;;;;;;;5029743;28;20333;-65
2022/01/09 09:20:30;;;;;;;9.80;2.50;;;;;;;;;;5029456;28;20074;-64
2022/01/09 09:22:56;;;;;;;13.50;2.13;;;6.10;99.90;;;;;;5013883;28;20500;-64
2022/01/09 09:25:21;;;;;;;9.48;2.85;;;5.90;99.90;;;;;;5035695;28;20120;-63
2022/01/09 09:27:47;;;;;;;13.93;2.55;;;;;;;;;;5031084;28;20037;-64
2022/01/09 09:30:14;;;;;;;9.27;2.17;;;;;;;;;;5035072;28;21181;-64
2022/01/09 09:32:41;;;;;;;8.80;2.30;;;;;;;;;;5045556;28;20058;-64
2022/01/09 09:35:07;;;;;;;10.38;2.40;;;6.10;99.90;;;;;;5050635;28;20033;-63
2022/01/09 09:37:34;;;;;;;6.70;1.52;;;;;;;;;;5048995;28;20052;-65
2022/01/09 09:39:59;;;;;;;8.35;2.00;;;6.10;99.90;;;;;;5045158;28;20045;-65
2022/01/09 09:42:25;;;;;;;12.52;2.13;;;6.20;99.90;;;;;;5057543;28;20063;-66
2022/01/09 09:44:51;;;;;;;6.75;2.08;;;;;;;;;;5047483;28;20038;-65
2022/01/09 09:47:18;;;;;;;7.35;2.20;;;;;;;;;;5041648;28;20050;-64
2022/01/09 09:49:46;;;;;;;8.13;2.08;;;6.20;99.90;;;;;;5052967;28;20058;-62
2022/01/09 09:52:15;;;;;;;7.50;1.80;;;6.30;99.90;;;;;;5046717;28;20049;-63
2022/01/09 09:54:41;;;;;;;4.90;1.30;;;6.40;99.90;;;;;;5013080;28;20053;-64
2022/01/09 09:57:07;;;;;;;5.00;1.58;;;6.60;99.90;;;;;;5046609;28;20506;-64
2022/01/09 09:59:38;;;;;;;7.07;1.80;;;6.30;99.90;;;;;;5043619;28;20044;-64
2022/01/09 10:02:17;;;;;;;4.38;1.27;;;;;;;;;;5065402;28;20087;-64
2022/01/09 10:05:05;;;;;;;7.05;1.40;;;6.10;99.90;;;;;;5045331;28;20040;-64
2022/01/09 10:07:32;;;;;;;6.93;1.67;;;;;;;;;;5043959;28;20045;-64
2022/01/09 10:10:19;;;;;;;6.38;1.02;;;6.20;99.90;;;;;;5062361;28;20139;-65
2022/01/09 10:12:47;;;;;;;2.78;0.98;;;6.40;99.90;;;;;;5010382;28;20126;-64
2022/01/09 10:15:18;;;;;;;4.97;1.20;;;6.10;99.90;;;;;;5038954;28;20051;-65
2022/01/09 10:17:46;;;;;;;3.28;1.23;;;6.30;99.90;;;;;;5042250;28;20047;-64
2022/01/09 10:20:13;;;;;;;6.15;1.48;;;6.30;99.90;;;;;;5068157;28;20033;-65
2022/01/09 10:22:44;;;;;;;4.63;1.60;;;6.30;99.90;;;;;;5052076;28;20351;-65
2022/01/09 10:25:31;;;;;;;7.40;1.50;;;6.40;99.90;;;;;;5062109;28;20045;-64
2022/01/09 10:28:16;;;;;;;3.78;1.75;;;6.70;99.90;;;;;;5059567;28;20390;-63
2022/01/09 10:30:47;;;;;;;9.68;1.30;;;;;;;;;;5029746;28;20037;-64
2022/01/09 10:33:15;;;;;;;8.02;1.52;;;;;;;;;;5047945;28;20042;-64
2022/01/09 10:39:09;;;;;;;5.10;1.70;;;7.00;99.90;;;;;;5022491;28;20044;-64
2022/01/09 10:41:53;;;;;;;4.95;1.45;;;;;;;;;;5033311;28;20491;-65
2022/01/09 10:44:22;;;;;;;6.25;2.10;;;7.50;99.90;;;;;;5045698;28;20657;-64
2022/01/09 10:46:57;;;;;;;4.55;1.65;;;7.70;99.90;;;;;;5050212;28;20037;-64
2022/01/09 10:49:23;;;;;;;8.85;2.25;;;;;;;;;;5064670;28;20055;-66
2022/01/09 10:51:50;;;;;;;9.50;1.90;;;7.90;99.90;;;;;;5066680;28;20035;-64
2022/01/09 10:54:29;;;;;;;6.45;1.40;;;8.30;99.90;;;;;;5047739;28;20044;-66
2022/01/09 10:57:14;;;;;;;6.07;1.80;;;8.30;99.90;;;;;;5063761;28;20036;-66
2022/01/09 10:59:40;;;;;;;6.50;1.73;;;8.40;99.90;;;;;;5066757;28;20540;-64
2022/01/09 11:02:06;;;;;;;7.70;2.00;;;8.30;99.90;;;;;;5027865;28;20045;-65
2022/01/09 11:04:32;;;;;;;11.82;2.65;;;;;;;;;;5032937;28;20569;-67
2022/01/09 11:07:00;;;;;;;6.53;1.92;;;8.40;99.90;;;;;;5046416;28;20047;-66
2022/01/09 11:09:27;;;;;;;12.10;2.25;;;;;;;;;;5032222;28;20515;-65
2022/01/09 11:11:54;;;;;;;7.93;2.22;;;8.30;99.90;;;;;;5010231;28;20053;-65
2022/01/09 11:14:22;;;;;;;7.97;2.28;;;8.50;99.90;;;;;;5028808;28;20101;-63
2022/01/09 11:16:52;;;;;;;10.85;2.22;;;8.60;99.90;;;;;;5038231;28;20496;-64
2022/01/09 11:19:19;;;;;;;7.53;2.15;;;8.60;99.90;;;;;;5034606;28;20041;-64
2022/01/09 11:21:45;;;;;;;16.70;2.65;;;;;;;;;;5063658;28;20733;-63
2022/01/09 11:24:35;;;;;;;15.30;2.70;;;8.70;99.90;;;;;;5045835;28;20040;-62
2022/01/09 11:27:17;;;;;;;7.90;2.17;;;8.60;99.90;;;;;;5065911;28;20041;-64
2022/01/09 11:30:05;;;;;;;10.65;3.00;;;8.90;99.90;;;;;;5046713;28;20410;-65
2022/01/09 11:32:32;;;;;;;6.32;2.30;;;;;;;;;;5049922;28;20059;-64
2022/01/09 11:35:07;;;;;;;4.22;1.63;;;8.70;99.90;;;;;;5048009;28;20372;-63
2022/01/09 11:38:07;;;;;;;7.75;2.20;;;8.70;99.90;;;;;;5034336;28;20048;-64
2022/01/09 11:40:33;;;;;;;7.88;1.80;;;8.60;99.90;;;;;;5049530;28;20048;-65
2022/01/09 11:43:03;;;;;;;11.23;2.50;;;8.50;99.90;;;;;;5066559;28;20032;-65
2022/01/09 11:45:40;;;;;;;10.73;2.17;;;8.50;99.90;;;;;;5044935;28;20048;-64
2022/01/09 11:48:06;;;;;;;5.93;2.28;;;8.60;99.90;;;;;;5062368;28;20116;-64
2022/01/09 11:50:33;;;;;;;12.48;2.40;;;8.40;99.90;;;;;;5030741;28;20124;-65
2022/01/09 11:53:00;;;;;;;16.85;2.85;;;8.50;99.90;;;;;;5020599;28;20048;-65
2022/01/09 11:55:38;;;;;;;8.95;2.75;;;;;;;;;;5028241;28;20091;-64
2022/01/09 11:58:06;;;;;;;11.95;2.22;;;8.50;99.90;;;;;;5036610;28;20040;-64
2022/01/09 12:00:40;;;;;;;12.00;2.83;;;8.40;99.90;;;;;;5065173;28;20041;-64
2022/01/09 12:03:28;;;;;;;11.40;2.60;;;8.60;99.90;;;;;;5067590;28;20036;-64
2022/01/09 12:06:10;;;;;;;17.33;3.58;;;8.40;99.90;;;;;;5062421;28;20070;-64
2022/01/09 12:09:08;;;;;;;15.55;2.45;;;;;;;;;;5062553;28;20505;-65
2022/01/09 12:12:08;;;;;;;11.75;2.58;;;;;;;;;;5018493;28;20045;-64
2022/01/09 12:14:53;;;;;;;19.70;3.25;;;8.40;99.90;;;;;;5019647;28;20419;-64
2022/01/09 12:17:22;;;;;;;7.85;2.78;;;8.40;99.90;;;;;;5048778;28;20123;-64
2022/01/09 12:20:12;;;;;;;12.95;2.80;;;8.60;99.90;;;;;;5049634;28;20056;-64
2022/01/09 12:22:45;;;;;;;12.18;2.38;;;8.60;99.90;;;;;;5045319;28;20040;-64
2022/01/09 12:25:32;;;;;;;12.77;2.58;;;8.30;99.90;;;;;;5038513;28;20049;-64
2022/01/09 12:28:20;;;;;;;9.43;2.47;;;8.30;99.90;;;;;;5034030;28;20056;-64
2022/01/09 12:30:57;;;;;;;13.20;2.47;;;8.30;99.90;;;;;;5045074;28;20037;-64
2022/01/09 12:33:31;;;;;;;11.38;1.90;;;;;;;;;;5065856;28;20032;-63
2022/01/09 12:35:58;;;;;;;9.60;2.55;;;8.10;99.90;;;;;;5065202;28;20048;-64
2022/01/09 12:38:26;;;;;;;6.00;1.73;;;8.10;99.90;;;;;;5056548;28;20541;-64
2022/01/09 12:40:57;;;;;;;7.88;1.95;;;7.90;99.90;;;;;;5042902;28;20029;-64
2022/01/09 12:43:24;;;;;;;6.93;1.80;;;8.20;99.90;;;;;;5064501;28;20095;-63
2022/01/09 12:45:51;;;;;;;9.63;2.03;;;8.00;99.90;;;;;;5060084;28;20040;-65
2022/01/09 12:48:27;;;;;;;9.77;2.38;;;8.00;99.90;;;;;;5050503;28;20049;-64
2022/01/09 12:50:54;;;;;;;6.60;1.38;;;7.80;99.90;;;;;;5043053;28;20166;-65
2022/01/09 12:53:24;;;;;;;6.82;1.38;;;7.90;99.90;;;;;;5062373;28;20037;-65
2022/01/09 12:56:05;;;;;;;5.85;1.70;;;8.40;99.90;;;;;;5068905;28;20037;-64
2022/01/09 12:58:39;;;;;;;4.18;1.60;;;8.30;99.90;;;;;;5046926;28;20036;-64
2022/01/09 13:01:16;;;;;;;2.33;1.02;;;8.20;99.90;;;;;;5050177;28;20386;-66
2022/01/09 13:03:44;;;;;;;5.53;1.55;;;8.00;99.90;;;;;;5054931;28;20106;-65
2022/01/09 13:06:12;;;;;;;8.93;2.03;;;7.90;99.90;;;;;;5050183;28;20083;-66
2022/01/09 13:08:46;;;;;;;9.48;1.85;;;7.90;99.90;;;;;;5040211;28;20115;-65
2022/01/09 13:11:15;;;;;;;8.65;1.65;;;8.00;99.90;;;;;;5015686;28;20045;-65
2022/01/09 13:13:41;;;;;;;7.63;1.40;;;;;;;;;;5031346;28;20083;-65
2022/01/09 13:16:14;;;;;;;5.22;1.55;;;7.70;99.90;;;;;;5050181;28;20396;-65
2022/01/09 13:18:45;;;;;;;5.15;1.50;;;7.70;99.90;;;;;;5031938;28;20045;-64
2022/01/09 13:21:17;;;;;;;3.22;1.25;;;;;;;;;;5055162;28;20052;-65
2022/01/09 13:23:57;;;;;;;2.33;1.13;;;8.20;99.90;;;;;;5049955;28;20041;-64